Thayne, Wyoming
Current Conditions -  °F | °C
As of 6:35 PM on Friday 19 Dec 2014 (Local Time) from KAFO Reporting Station
Light Snow Light Snow  
Wind Chill: 26°   Ceiling: 3900
Heat Index: 32°   Visibility: 10mi
Dew Point: 27°   Wind: 7mph
Humidity: 80%   Direction: 200°SSW
Pressure: 30.08"   Gusts: NA
Location:  42.92°N, 111°W
Report Text: KAFO 200135Z AUTO 20006KT 10SM -SN OVC039 00/M03 A3008 RMK AO2
Loading
Personal Weather Stations






























Interactive Weather Map New forecast layout! Learn more

10-Day Weather Forecast

Advertisements
Track Severe Weather on mobile